Time;durP1;ratioP1;P1;durP2;ratioP2;P2;SDS_P1;SDS_P2;PMS_P1;PMS_P2;Temp;Humidity;BMP_temperature;BMP_pressure;BME280_temperature;BME280_humidity;BME280_pressure;Samples;Min_cycle;Max_cycle;Signal;HPM_P1;HPM_P2
2023/08/05 00:02:48;;;;;;;3.30;2.50;;;;;;;17.00;85.75;101452.47;6115617;29;20246;-67
2023/08/05 00:06:10;;;;;;;3.05;2.38;;;;;;;17.07;85.73;101448.91;6097845;29;20243;-67
2023/08/05 00:09:33;;;;;;;2.55;2.35;;;;;;;17.00;85.21;101452.47;6101909;29;20662;-67
2023/08/05 00:12:54;;;;;;;5.25;2.05;;;;;;;16.98;85.45;101449.06;6109661;29;20235;-67
2023/08/05 00:16:17;;;;;;;4.07;2.67;;;;;;;17.23;85.69;101454.41;6119081;28;20517;-67
2023/08/05 00:19:38;;;;;;;3.60;2.00;;;;;;;17.29;84.56;101451.03;6111951;29;20314;-67
2023/08/05 00:22:58;;;;;;;3.10;1.77;;;;;;;17.19;83.86;101463.94;6114261;29;20712;-67
2023/08/05 00:26:19;;;;;;;3.17;2.13;;;;;;;17.29;83.59;101463.81;6110352;29;20614;-67
2023/08/05 00:29:40;;;;;;;4.10;2.83;;;;;;;17.41;82.54;101470.66;6100001;29;20237;-67
2023/08/05 00:33:02;;;;;;;4.85;2.53;;;;;;;17.56;81.80;101469.06;6102187;29;20248;-67
2023/08/05 00:36:23;;;;;;;8.15;2.50;;;;;;;17.54;81.65;101477.38;6099563;29;20236;-66
2023/08/05 00:39:44;;;;;;;4.95;2.10;;;;;;;17.55;81.56;101473.66;6100993;29;20219;-66
2023/08/05 00:43:05;;;;;;;3.60;2.10;;;;;;;17.50;81.29;101476.00;6112952;29;20232;-67
2023/08/05 00:46:27;;;;;;;4.97;2.63;;;;;;;17.26;81.57;101462.28;6112998;29;20244;-67
2023/08/05 00:49:52;;;;;;;3.55;3.17;;;;;;;17.18;82.96;101459.53;6094831;29;20236;-67
2023/08/05 00:53:14;;;;;;;3.22;2.13;;;;;;;17.27;82.99;101463.13;6106390;29;20240;-66
2023/08/05 00:56:35;;;;;;;3.83;2.30;;;;;;;17.40;82.56;101469.81;6101367;29;20255;-66
2023/08/05 00:59:56;;;;;;;3.25;1.80;;;;;;;17.23;82.94;101470.78;6100549;29;20243;-66
2023/08/05 01:03:17;;;;;;;6.38;3.63;;;;;;;17.38;83.05;101474.56;6103302;29;20228;-67
2023/08/05 01:06:41;;;;;;;7.70;2.90;;;;;;;17.27;82.72;101463.97;6079536;29;20232;-66
2023/08/05 01:10:02;;;;;;;4.18;2.47;;;;;;;17.10;83.28;101467.69;6100465;29;20252;-67
2023/08/05 01:13:23;;;;;;;4.30;2.55;;;;;;;17.45;83.17;101474.78;6097229;28;20240;-66
2023/08/05 01:16:43;;;;;;;5.68;2.53;;;;;;;17.15;82.89;101470.75;6111194;29;20266;-67
2023/08/05 01:20:06;;;;;;;8.52;3.40;;;;;;;17.42;83.11;101473.22;6091963;29;20338;-67
2023/08/05 01:23:36;;;;;;;2.88;2.28;;;;;;;17.62;82.64;101472.97;6110076;29;20773;-66
2023/08/05 01:26:59;;;;;;;2.33;2.00;;;;;;;17.75;82.26;101473.34;6098386;29;20259;-66
2023/08/05 01:30:23;;;;;;;4.07;2.72;;;;;;;17.63;81.64;101471.97;6107380;28;20241;-67
2023/08/05 01:33:44;;;;;;;3.58;2.30;;;;;;;17.33;81.90;101467.94;6082581;29;20227;-66
2023/08/05 01:37:06;;;;;;;2.13;1.98;;;;;;;17.21;82.26;101470.09;6097590;29;20243;-67
2023/08/05 01:40:28;;;;;;;1.92;1.77;;;;;;;17.17;82.89;101479.59;6102581;29;20236;-66
2023/08/05 01:43:50;;;;;;;2.75;2.30;;;;;;;16.95;83.38;101479.34;6087118;29;20255;-67
2023/08/05 01:47:11;;;;;;;3.03;1.80;;;;;;;17.32;83.53;101483.41;6093422;29;20240;-67
2023/08/05 01:50:33;;;;;;;4.80;2.05;;;;;;;17.41;83.14;101478.84;6104726;28;20442;-67
2023/08/05 01:53:53;;;;;;;5.55;2.20;;;;;;;17.37;82.93;101470.16;6106947;29;20252;-66
2023/08/05 01:57:14;;;;;;;2.90;1.80;;;;;;;17.25;82.96;101471.47;6109383;29;20237;-66
2023/08/05 02:00:39;;;;;;;2.60;2.07;;;;;;;17.32;83.73;101471.66;6096308;29;20607;-66
2023/08/05 02:04:03;;;;;;;5.57;2.10;;;;;;;17.23;83.61;101472.66;6107495;29;20247;-67
2023/08/05 02:07:24;;;;;;;8.27;3.10;;;;;;;17.31;84.08;101472.69;6115973;28;20338;-67
2023/08/05 02:10:44;;;;;;;4.30;2.60;;;;;;;17.52;83.73;101464.97;6095186;29;20232;-66
2023/08/05 02:14:05;;;;;;;5.53;2.58;;;;;;;17.46;83.60;101457.38;6105813;29;20239;-67
2023/08/05 02:17:27;;;;;;;6.30;2.08;;;;;;;17.39;84.03;101456.34;6117256;29;20231;-68
2023/08/05 02:20:48;;;;;;;3.22;1.80;;;;;;;17.39;84.17;101459.09;6112802;28;20280;-66
2023/08/05 02:24:09;;;;;;;6.05;2.60;;;;;;;17.47;84.21;101454.50;6103102;29;20227;-66
2023/08/05 02:27:30;;;;;;;3.00;1.90;;;;;;;17.34;84.25;101458.72;6113090;29;20236;-65
2023/08/05 02:30:52;;;;;;;2.92;1.88;;;;;;;17.37;84.87;101464.72;6083610;29;20628;-66
2023/08/05 02:34:14;;;;;;;3.60;2.20;;;;;;;17.26;84.57;101464.13;6099888;29;20232;-69
2023/08/05 02:37:36;;;;;;;2.58;2.08;;;;;;;17.50;84.50;101478.72;6105066;29;20232;-67
2023/08/05 02:40:58;;;;;;;9.00;2.78;;;;;;;17.51;84.46;101480.44;6094668;29;20622;-67
2023/08/05 02:44:19;;;;;;;6.43;3.95;;;;;;;17.35;84.86;101476.78;6103013;29;20220;-67
2023/08/05 02:47:40;;;;;;;3.17;2.42;;;;;;;17.35;85.43;101485.84;6106511;29;20240;-67
2023/08/05 02:51:03;;;;;;;7.00;2.30;;;;;;;17.35;85.33;101491.28;6112472;29;20252;-67
2023/08/05 02:54:24;;;;;;;5.53;2.58;;;;;;;17.18;85.78;101485.91;6108718;29;20456;-66
2023/08/05 02:57:45;;;;;;;6.50;2.30;;;;;;;17.20;86.12;101486.59;6100482;29;20231;-66
2023/08/05 03:01:07;;;;;;;3.72;1.67;;;;;;;17.31;86.05;101483.59;6105683;28;20839;-66
2023/08/05 03:04:28;;;;;;;4.20;2.05;;;;;;;17.25;85.97;101485.09;6107537;29;20232;-66
2023/08/05 03:07:50;;;;;;;4.55;2.13;;;;;;;17.04;86.47;101475.66;6115694;29;20613;-67
2023/08/05 03:11:11;;;;;;;3.15;1.77;;;;;;;16.95;87.07;101482.91;6093719;29;20263;-67
2023/08/05 03:14:33;;;;;;;3.45;1.85;;;;;;;16.70;87.79;101476.50;6090329;29;20617;-66
2023/08/05 03:17:54;;;;;;;3.65;2.65;;;;;;;17.09;87.50;101474.13;6117293;29;20546;-67
2023/08/05 03:21:15;;;;;;;4.63;2.30;;;;;;;17.12;87.37;101471.09;6084505;29;20228;-67
2023/08/05 03:24:37;;;;;;;3.30;2.60;;;;;;;17.15;87.41;101470.75;6101407;29;20236;-67
2023/08/05 03:27:58;;;;;;;8.65;3.22;;;;;;;17.18;87.35;101464.13;6114936;29;20235;-67
2023/08/05 03:31:21;;;;;;;2.83;1.95;;;;;;;17.03;86.96;101461.16;6105149;29;20318;-66
2023/08/05 03:34:42;;;;;;;4.22;2.35;;;;;;;17.09;87.43;101468.69;6104802;28;20260;-67
2023/08/05 03:38:03;;;;;;;4.45;3.38;;;;;;;16.92;87.44;101469.59;6117083;29;20262;-67
2023/08/05 03:41:25;;;;;;;4.22;2.08;;;;;;;16.74;87.76;101466.13;6095455;29;20252;-66
2023/08/05 03:44:47;;;;;;;3.50;2.35;;;;;;;16.88;88.29;101460.06;6103347;29;20223;-67
2023/08/05 03:48:08;;;;;;;4.10;2.10;;;;;;;17.03;87.81;101463.03;6086661;28;20730;-67
2023/08/05 03:51:29;;;;;;;3.23;2.80;;;;;;;17.13;87.34;101453.69;6100516;28;20232;-66
2023/08/05 03:54:53;;;;;;;3.23;1.90;;;;;;;17.15;87.11;101445.34;6097520;29;20236;-66
2023/08/05 03:58:18;;;;;;;2.77;2.50;;;;;;;17.21;86.75;101440.09;6112332;29;20247;-67
2023/08/05 04:01:41;;;;;;;2.60;1.85;;;;;;;17.20;86.32;101438.41;6086162;29;20326;-65
2023/08/05 04:05:02;;;;;;;2.83;2.03;;;;;;;17.04;86.72;101434.78;6088602;29;20240;-67
2023/08/05 04:08:23;;;;;;;3.08;2.45;;;;;;;16.85;86.95;101435.88;6113202;29;20255;-67
2023/08/05 04:11:45;;;;;;;2.93;1.97;;;;;;;17.00;87.32;101433.41;6098049;29;20231;-67
2023/08/05 04:15:11;;;;;;;6.67;2.93;;;;;;;17.21;86.63;101431.94;6086184;29;20327;-66
2023/08/05 04:18:38;;;;;;;4.93;2.30;;;;;;;17.31;86.28;101427.19;6109230;28;20235;-66
2023/08/05 04:22:00;;;;;;;5.07;3.00;;;;;;;17.45;85.92;101417.53;6096441;29;20626;-66
2023/08/05 04:25:21;;;;;;;6.17;3.23;;;;;;;17.30;85.97;101405.56;6104844;29;20235;-66
2023/08/05 04:28:42;;;;;;;5.07;3.00;;;;;;;17.41;85.87;101408.84;6103150;29;20326;-66
2023/08/05 04:32:05;;;;;;;3.33;2.53;;;;;;;17.60;85.89;101406.84;6112660;29;20784;-67
2023/08/05 04:35:26;;;;;;;3.45;2.42;;;;;;;17.56;85.97;101415.34;6108598;28;20775;-66
2023/08/05 04:38:47;;;;;;;4.17;1.90;;;;;;;17.63;85.61;101420.97;6106246;29;20236;-66
2023/08/05 04:42:08;;;;;;;5.70;2.67;;;;;;;17.56;85.29;101411.78;6110817;29;20620;-66
2023/08/05 04:45:28;;;;;;;1.80;1.70;;;;;;;17.64;84.95;101403.63;6108136;29;20251;-66
2023/08/05 04:48:50;;;;;;;8.50;2.57;;;;;;;17.63;85.04;101409.25;6108842;29;20244;-66
2023/08/05 04:52:13;;;;;;;9.50;2.33;;;;;;;17.75;85.31;101410.63;6112083;29;20232;-66
2023/08/05 04:55:34;;;;;;;7.30;2.47;;;;;;;17.79;84.92;101411.97;6110004;28;20341;-67
2023/08/05 04:58:55;;;;;;;4.65;3.38;;;;;;;17.76;85.09;101409.56;6110774;28;20505;-66
2023/08/05 05:02:16;;;;;;;3.55;2.70;;;;;;;17.36;85.37;101403.03;6106944;28;20682;-67
2023/08/05 05:05:38;;;;;;;4.35;2.80;;;;;;;17.03;86.35;101400.38;6090413;28;20323;-67
2023/08/05 05:08:59;;;;;;;3.45;2.33;;;;;;;16.96;86.98;101405.63;6103451;29;22307;-67
2023/08/05 05:12:20;;;;;;;4.53;2.50;;;;;;;17.05;87.22;101410.09;6109366;29;20239;-67
2023/08/05 05:15:41;;;;;;;5.53;2.25;;;;;;;16.98;87.45;101410.91;6090729;29;20224;-66
2023/08/05 05:19:02;;;;;;;11.23;3.35;;;;;;;16.85;88.12;101414.09;6096860;29;20812;-66
2023/08/05 05:22:24;;;;;;;4.05;2.92;;;;;;;16.85;88.21;101416.81;6123915;28;20390;-66
2023/08/05 05:25:45;;;;;;;4.70;3.17;;;;;;;17.02;88.24;101417.75;6119534;28;20228;-66
2023/08/05 05:29:06;;;;;;;5.22;4.30;;;;;;;16.99;88.63;101415.34;6113659;29;20239;-66
2023/08/05 05:32:27;;;;;;;5.82;3.35;;;;;;;16.96;88.69;101415.69;6129101;28;20251;-66
2023/08/05 05:35:49;;;;;;;6.53;4.13;;;;;;;17.05;89.00;101417.41;6097343;29;20867;-67
2023/08/05 05:39:11;;;;;;;5.47;4.10;;;;;;;17.11;88.45;101423.03;6107207;28;20363;-67
2023/08/05 05:42:32;;;;;;;9.97;4.00;;;;;;;17.34;88.11;101418.69;6114947;29;20247;-67
2023/08/05 05:45:53;;;;;;;4.30;3.90;;;;;;;17.43;87.65;101423.16;6117016;28;20531;-67
2023/08/05 05:49:15;;;;;;;4.78;3.63;;;;;;;17.65;87.19;101427.13;6110303;29;20259;-67
2023/08/05 05:52:35;;;;;;;5.10;3.13;;;;;;;17.81;86.70;101434.50;6111887;29;20252;-67
2023/08/05 05:55:58;;;;;;;6.40;4.77;;;;;;;17.80;86.61;101435.50;6115410;29;20602;-67
2023/08/05 05:59:18;;;;;;;4.25;3.60;;;;;;;17.40;86.53;101450.72;6108457;28;20232;-66
2023/08/05 06:02:39;;;;;;;7.40;4.40;;;;;;;17.63;87.12;101448.25;6113519;29;20358;-66
2023/08/05 06:06:01;;;;;;;7.93;5.50;;;;;;;17.77;86.98;101455.81;6123921;28;20236;-67
2023/08/05 06:09:22;;;;;;;5.38;3.80;;;;;;;17.76;86.62;101458.69;6101769;29;20236;-67
2023/08/05 06:12:44;;;;;;;3.95;2.40;;;;;;;17.31;86.87;101459.06;6112214;29;20228;-66
2023/08/05 06:16:05;;;;;;;9.63;2.78;;;;;;;17.49;86.94;101459.78;6098861;29;20236;-66
2023/08/05 06:19:26;;;;;;;5.85;2.88;;;;;;;17.35;87.47;101463.16;6113627;28;20243;-66
2023/08/05 06:22:46;;;;;;;8.63;3.78;;;;;;;17.08;88.40;101463.41;6119062;29;20295;-67
2023/08/05 06:26:07;;;;;;;5.57;2.65;;;;;;;17.21;88.70;101472.81;6103462;29;20232;-66
2023/08/05 06:29:29;;;;;;;3.65;2.65;;;;;;;17.45;88.43;101482.94;6108402;28;20247;-65
2023/08/05 06:32:51;;;;;;;5.78;3.42;;;;;;;17.64;88.19;101474.53;6123022;28;20223;-65
2023/08/05 06:36:11;;;;;;;3.53;3.22;;;;;;;17.96;87.22;101481.91;6095148;29;20681;-66
2023/08/05 06:39:33;;;;;;;7.90;3.22;;;;;;;18.29;85.98;101480.91;6104996;28;20242;-66
2023/08/05 06:42:54;;;;;;;4.20;2.58;;;;;;;18.76;84.46;101470.09;6117203;29;20232;-66
2023/08/05 06:46:16;;;;;;;4.10;2.88;;;;;;;18.90;82.36;101466.66;6116182;29;20236;-66
2023/08/05 06:49:36;;;;;;;4.35;2.42;;;;;;;18.62;81.34;101460.75;6100099;29;20332;-66
2023/08/05 06:52:57;;;;;;;5.72;2.65;;;;;;;18.45;82.42;101450.88;6115629;29;20327;-65
2023/08/05 06:56:19;;;;;;;5.70;2.95;;;;;;;18.73;82.08;101457.63;6106664;29;20224;-66
2023/08/05 06:59:39;;;;;;;3.97;2.05;;;;;;;18.59;81.80;101457.47;6107202;28;20235;-66
2023/08/05 07:03:02;;;;;;;3.67;2.38;;;;;;;18.52;82.62;101442.84;6118303;29;20599;-66
2023/08/05 07:06:23;;;;;;;8.05;3.75;;;;;;;18.50;82.38;101442.16;6114929;28;20595;-66
2023/08/05 07:09:44;;;;;;;5.25;3.05;;;;;;;18.90;82.13;101442.06;6105812;28;20231;-67
2023/08/05 07:13:06;;;;;;;6.90;3.50;;;;;;;19.27;80.88;101441.38;6113799;28;20310;-67
2023/08/05 07:16:27;;;;;;;6.60;2.53;;;;;;;19.09;80.15;101439.75;6103787;29;20319;-67
2023/08/05 07:19:49;;;;;;;6.60;2.42;;;;;;;19.19;79.96;101438.69;6110758;28;20240;-67
2023/08/05 07:23:10;;;;;;;3.40;2.13;;;;;;;19.10;80.44;101448.81;6103374;29;20232;-67
2023/08/05 07:26:31;;;;;;;4.30;2.85;;;;;;;19.07;80.87;101444.53;6089471;29;20615;-67
2023/08/05 07:29:52;;;;;;;2.83;1.67;;;;;;;18.82;82.12;101445.66;6110762;29;20224;-66
2023/08/05 07:33:13;;;;;;;3.92;2.10;;;;;;;19.28;81.79;101448.53;6117699;29;20701;-66
2023/08/05 07:36:35;;;;;;;5.10;2.28;;;;;;;19.14;80.24;101434.63;6107242;28;20231;-66
2023/08/05 07:39:57;;;;;;;7.95;3.22;;;;;;;19.00;79.47;101432.59;6110160;29;20843;-67
2023/08/05 07:43:21;;;;;;;4.38;1.92;;;;;;;18.88;79.02;101427.69;6115365;29;20255;-65
2023/08/05 07:46:42;;;;;;;2.35;2.15;;;;;;;19.02;77.98;101424.25;6102595;29;20224;-66
2023/08/05 07:50:06;;;;;;;1.98;1.83;;;;;;;19.17;77.52;101416.16;6109904;29;20255;-66
2023/08/05 07:53:29;;;;;;;3.35;2.05;;;;;;;19.28;76.44;101402.91;6113318;29;20236;-66
2023/08/05 07:56:52;;;;;;;5.78;2.05;;;;;;;19.07;76.85;101400.81;6116344;29;20328;-66
2023/08/05 08:00:13;;;;;;;2.30;1.83;;;;;;;18.80;75.18;101387.59;6099686;29;20223;-66
2023/08/05 08:03:35;;;;;;;5.03;2.08;;;;;;;19.24;74.29;101389.78;6117908;29;20220;-66
2023/08/05 08:06:55;;;;;;;6.75;2.08;;;;;;;19.02;72.10;101377.78;6114193;29;20232;-66
2023/08/05 08:10:20;;;;;;;3.88;2.10;;;;;;;19.53;72.91;101379.03;6106630;28;20768;-66
2023/08/05 08:13:41;;;;;;;6.25;2.80;;;;;;;19.78;72.54;101375.94;6109653;28;20314;-66
2023/08/05 08:17:02;;;;;;;2.15;1.60;;;;;;;19.83;71.27;101367.16;6116019;29;20232;-66
2023/08/05 08:20:22;;;;;;;2.50;1.70;;;;;;;20.01;70.36;101364.94;6105223;29;20248;-66
2023/08/05 08:23:43;;;;;;;2.10;1.67;;;;;;;20.35;68.40;101368.06;6105781;29;20527;-67
2023/08/05 08:27:06;;;;;;;2.70;1.52;;;;;;;20.26;67.01;101369.19;6109872;28;20266;-67
2023/08/05 08:30:27;;;;;;;2.35;1.83;;;;;;;21.02;66.35;101365.19;6109323;29;20235;-66
2023/08/05 08:33:48;;;;;;;2.70;1.58;;;;;;;21.50;63.73;101367.28;6102276;29;20274;-66
2023/08/05 08:37:09;;;;;;;1.77;1.67;;;;;;;20.97;62.16;101379.47;6113053;29;20227;-65
2023/08/05 08:40:31;;;;;;;3.33;1.50;;;;;;;20.73;61.06;101377.88;6108903;29;20906;-65
2023/08/05 08:43:55;;;;;;;2.15;1.83;;;;;;;20.70;61.79;101378.28;6104907;28;20533;-66
2023/08/05 08:47:17;;;;;;;2.83;1.38;;;;;;;20.57;61.74;101369.84;6111100;29;20622;-65
2023/08/05 08:50:39;;;;;;;1.52;1.42;;;;;;;20.59;62.76;101364.19;6106680;29;20306;-66
2023/08/05 08:54:03;;;;;;;1.58;0.90;;;;;;;20.47;61.89;101373.91;6107462;29;21027;-66
2023/08/05 08:57:24;;;;;;;2.00;1.45;;;;;;;20.18;62.30;101369.22;6117430;28;20231;-66
2023/08/05 09:00:47;;;;;;;2.20;1.63;;;;;;;20.27;61.96;101375.50;6110888;28;20602;-66
2023/08/05 09:04:11;;;;;;;1.73;1.52;;;;;;;20.47;60.96;101379.41;6107555;29;20559;-65
2023/08/05 09:07:32;;;;;;;1.90;0.82;;;;;;;20.24;61.03;101381.34;6114666;29;20236;-67
2023/08/05 09:10:53;;;;;;;0.98;0.98;;;;;;;20.39;60.29;101374.00;6109258;28;20613;-66
2023/08/05 09:14:15;;;;;;;3.13;1.40;;;;;;;19.79;62.00;101377.63;6111091;29;20263;-66
2023/08/05 09:17:41;;;;;;;2.55;1.42;;;;;;;19.96;62.04;101364.66;6114607;28;20316;-66
2023/08/05 09:21:02;;;;;;;2.78;1.50;;;;;;;20.42;62.38;101373.66;6106828;29;20239;-66
2023/08/05 09:24:23;;;;;;;6.05;1.58;;;;;;;20.19;62.05;101368.22;6110491;28;20315;-65
2023/08/05 09:27:48;;;;;;;1.20;1.10;;;;;;;20.28;62.25;101367.09;6120555;29;20231;-66
2023/08/05 09:31:16;;;;;;;2.30;1.40;;;;;;;20.07;62.61;101371.59;6110838;29;20545;-66
2023/08/05 09:34:41;;;;;;;1.85;1.75;;;;;;;19.79;62.66;101371.31;6110651;28;20235;-66
2023/08/05 09:38:03;;;;;;;1.95;1.75;;;;;;;20.03;61.94;101356.53;6087534;29;20232;-66
2023/08/05 09:41:28;;;;;;;2.47;1.17;;;;;;;19.47;62.69;101366.94;6102356;29;20228;-65
2023/08/05 09:44:49;;;;;;;1.50;1.40;;;;;;;20.01;62.46;101355.88;6108497;29;20262;-66
2023/08/05 09:48:13;;;;;;;2.22;1.23;;;;;;;19.94;61.67;101351.16;6109725;29;20507;-64
2023/08/05 09:51:38;;;;;;;2.30;2.10;;;;;;;20.08;61.36;101348.63;6070685;28;1037083;-65
2023/08/05 09:55:03;;;;;;;4.45;1.88;;;;;;;20.58;60.59;101346.06;6104831;29;20243;-65
2023/08/05 09:58:24;;;;;;;2.05;1.88;;;;;;;20.84;59.29;101338.16;6119013;29;20224;-65
2023/08/05 10:01:46;;;;;;;1.75;1.40;;;;;;;21.52;58.39;101339.63;6116567;29;20322;-66
2023/08/05 10:05:09;;;;;;;1.90;1.48;;;;;;;21.57;57.59;101339.91;6108311;29;20240;-66
2023/08/05 10:08:32;;;;;;;2.67;1.60;;;;;;;21.44;57.97;101330.47;6119692;28;20247;-65
2023/08/05 10:11:54;;;;;;;1.20;1.20;;;;;;;22.08;57.26;101324.94;6118433;29;20239;-65
2023/08/05 10:15:25;;;;;;;2.65;1.88;;;;;;;21.75;57.51;101327.41;6107778;28;20550;-66
2023/08/05 10:18:48;;;;;;;3.72;1.50;;;;;;;22.70;56.38;101325.78;6111226;29;20251;-65
2023/08/05 10:22:10;;;;;;;2.13;1.70;;;;;;;22.73;55.26;101317.16;6116640;29;20323;-65
2023/08/05 10:25:43;;;;;;;2.85;1.38;;;;;;;22.69;55.46;101304.88;6106911;28;20236;-66
2023/08/05 10:29:25;;;;;;;1.40;1.30;;;;;;;21.78;56.39;101301.47;6107262;29;20240;-65
2023/08/05 10:32:50;;;;;;;1.27;1.13;;;;;;;22.16;55.44;101289.94;6111312;29;20236;-66
2023/08/05 10:36:11;;;;;;;2.08;1.05;;;;;;;22.21;54.81;101284.69;6049262;29;20662;-65
2023/08/05 10:39:42;;;;;;;5.28;1.65;;;;;;;22.65;55.10;101287.09;6115369;28;20505;-65
2023/08/05 10:43:05;;;;;;;3.35;1.45;;;;;;;23.10;53.26;101279.19;6119354;28;20239;-66
2023/08/05 10:46:29;;;;;;;3.28;1.58;;;;;;;23.29;52.53;101275.63;6108455;29;20219;-66
2023/08/05 10:49:51;;;;;;;1.83;1.65;;;;;;;23.23;52.91;101262.69;6105163;29;20693;-65
2023/08/05 10:53:13;;;;;;;3.45;1.30;;;;;;;23.49;53.55;101265.53;6115251;29;20501;-65
2023/08/05 10:56:35;;;;;;;2.83;1.00;;;;;;;22.68;53.19;101274.81;6110424;29;20256;-66
2023/08/05 11:00:01;;;;;;;1.38;1.27;;;;;;;22.83;52.91;101264.50;6109374;28;20236;-66
2023/08/05 11:03:33;;;;;;;2.20;1.55;;;;;;;22.80;53.43;101259.44;6116769;29;20523;-65
2023/08/05 11:06:55;;;;;;;3.35;1.33;;;;;;;22.86;54.21;101256.69;6109645;29;20235;-66
2023/08/05 11:10:16;;;;;;;2.00;1.67;;;;;;;21.98;54.29;101251.16;6111799;29;20235;-65
2023/08/05 11:13:38;;;;;;;1.95;1.73;;;;;;;22.07;55.21;101247.19;6115175;29;20236;-66
2023/08/05 11:17:05;;;;;;;2.78;2.47;;;;;;;23.44;54.36;101248.78;6114691;29;20236;-66
2023/08/05 11:20:33;;;;;;;3.60;1.80;;;;;;;22.93;52.53;101251.22;6107368;29;20681;-66
2023/08/05 11:23:53;;;;;;;6.90;1.27;;;;;;;23.32;51.27;101253.22;6105667;29;20236;-66
2023/08/05 11:27:14;;;;;;;2.83;2.55;;;;;;;23.97;49.96;101241.38;6112171;29;20236;-67
2023/08/05 11:30:39;;;;;;;1.63;1.17;;;;;;;24.11;48.63;101237.53;6113705;28;20721;-66
2023/08/05 11:34:02;;;;;;;1.40;1.30;;;;;;;24.81;49.28;101232.00;6109693;29;20533;-66
2023/08/05 11:37:23;;;;;;;1.10;1.00;;;;;;;23.70;48.89;101230.38;6117157;29;20228;-66
2023/08/05 11:40:48;;;;;;;2.72;1.58;;;;;;;23.63;50.42;101235.03;6095778;29;20228;-65
2023/08/05 11:44:09;;;;;;;1.42;1.00;;;;;;;23.44;50.03;101230.38;6108356;29;20515;-66
2023/08/05 11:47:30;;;;;;;2.78;1.40;;;;;;;23.43;51.13;101225.91;6119938;28;20231;-66
2023/08/05 11:50:57;;;;;;;2.00;1.30;;;;;;;22.87;51.64;101228.13;6108066;28;20232;-66
2023/08/05 11:54:26;;;;;;;2.03;1.40;;;;;;;23.51;50.09;101225.72;6106401;29;20231;-66
2023/08/05 11:58:00;;;;;;;1.75;1.35;;;;;;;24.42;48.99;101218.38;6117999;29;20223;-67
2023/08/05 12:01:21;;;;;;;1.60;1.30;;;;;;;24.23;48.47;101225.63;6114028;28;20239;-66
2023/08/05 12:04:44;;;;;;;1.17;1.08;;;;;;;24.26;49.08;101221.59;6106911;29;20271;-67
2023/08/05 12:08:06;;;;;;;2.83;1.40;;;;;;;24.30;48.66;101223.69;6112573;28;20654;-67
2023/08/05 12:11:27;;;;;;;2.00;1.30;;;;;;;24.10;48.97;101219.31;6109136;29;20323;-66
2023/08/05 12:14:48;;;;;;;2.67;1.88;;;;;;;25.10;46.94;101211.22;6105951;29;20232;-66
2023/08/05 12:18:09;;;;;;;1.63;0.93;;;;;;;25.87;45.26;101206.13;6117321;29;20232;-66
2023/08/05 12:21:30;;;;;;;0.93;0.93;;;;;;;25.32;45.51;101202.34;6102524;28;20612;-65
2023/08/05 12:24:52;;;;;;;2.00;0.98;;;;;;;24.55;46.26;101207.28;6109271;28;20232;-66
2023/08/05 12:28:13;;;;;;;1.30;1.20;;;;;;;23.47;48.25;101210.66;6116702;28;20231;-66
2023/08/05 12:31:34;;;;;;;2.08;1.67;;;;;;;23.88;48.59;101209.59;6104861;29;20235;-67
2023/08/05 12:34:55;;;;;;;1.33;1.23;;;;;;;26.05;44.34;101197.03;6108114;29;20284;-67
2023/08/05 12:38:16;;;;;;;1.35;1.25;;;;;;;25.71;42.36;101201.19;6110230;29;20318;-66
2023/08/05 12:41:38;;;;;;;0.77;0.77;;;;;;;27.23;40.26;101192.69;6110017;28;20304;-66
2023/08/05 12:45:03;;;;;;;1.67;1.33;;;;;;;27.02;41.33;101184.94;6104078;29;20240;-66
2023/08/05 12:48:24;;;;;;;0.93;0.90;;;;;;;26.52;41.18;101185.19;6112442;29;20219;-65
2023/08/05 12:51:45;;;;;;;0.80;0.80;;;;;;;28.94;39.15;101175.31;6111032;28;20589;-66
2023/08/05 12:55:07;;;;;;;0.90;0.85;;;;;;;30.28;35.54;101176.09;6107949;29;20240;-65
2023/08/05 12:58:29;;;;;;;1.10;1.02;;;;;;;31.22;35.62;101171.91;6110025;28;20240;-67
2023/08/05 13:01:50;;;;;;;0.98;0.95;;;;;;;28.25;38.59;101170.81;6106999;28;20235;-67
2023/08/05 13:05:14;;;;;;;2.85;1.17;;;;;;;27.21;42.49;101158.88;6095101;28;20614;-67
2023/08/05 13:08:35;;;;;;;0.95;0.85;;;;;;;28.17;41.67;101151.78;6118053;28;20258;-67
2023/08/05 13:12:02;;;;;;;1.25;1.10;;;;;;;30.02;38.87;101143.47;6092199;28;20307;-68
2023/08/05 13:15:24;;;;;;;1.85;1.20;;;;;;;32.23;36.52;101131.66;6104896;28;20275;-67
2023/08/05 13:18:45;;;;;;;1.58;1.15;;;;;;;33.37;34.32;101125.75;6103561;28;20330;-66
2023/08/05 13:22:06;;;;;;;1.40;1.08;;;;;;;33.31;32.46;101124.94;6125292;28;20232;-66
2023/08/05 13:25:27;;;;;;;2.38;1.27;;;;;;;31.22;34.60;101118.97;6104294;29;20240;-66
2023/08/05 13:28:48;;;;;;;2.20;0.93;;;;;;;29.18;36.65;101123.28;6107776;29;20244;-65
2023/08/05 13:32:10;;;;;;;1.50;1.15;;;;;;;28.55;38.36;101128.16;6115804;28;20231;-66
2023/08/05 13:35:30;;;;;;;1.20;1.10;;;;;;;31.44;36.51;101122.50;6109731;29;20228;-67
2023/08/05 13:39:24;;;;;;;1.33;1.08;;;;;;;31.84;35.98;101113.56;6001503;29;20312;-67
2023/08/05 13:42:54;;;;;;;1.02;0.95;;;;;;;32.19;35.77;101105.38;6075942;28;20240;-67
2023/08/05 13:46:16;;;;;;;2.30;1.30;;;;;;;33.60;33.70;101106.47;6084524;29;20224;-68
2023/08/05 13:49:38;;;;;;;1.42;1.17;;;;;;;32.75;33.42;101104.44;6108761;29;20287;-66
2023/08/05 13:52:59;;;;;;;1.67;0.68;;;;;;;30.17;36.50;101093.59;6111759;29;20854;-66
2023/08/05 13:56:21;;;;;;;1.58;0.98;;;;;;;30.96;35.35;101097.59;6101338;29;20232;-66
2023/08/05 13:59:41;;;;;;;1.35;1.20;;;;;;;32.23;34.54;101096.19;6107701;29;20255;-67
2023/08/05 14:03:02;;;;;;;1.30;1.17;;;;;;;33.62;33.69;101089.41;6116252;29;20239;-65
2023/08/05 14:06:25;;;;;;;2.15;1.35;;;;;;;33.83;34.02;101089.06;6095076;28;20219;-65
2023/08/05 14:09:54;;;;;;;1.33;1.20;;;;;;;30.52;35.99;101082.91;6095742;29;20602;-68
2023/08/05 14:13:15;;;;;;;0.88;0.88;;;;;;;31.18;36.17;101076.03;6108661;28;20227;-66
2023/08/05 14:16:38;;;;;;;2.58;1.33;;;;;;;28.93;37.16;101076.44;6108461;28;20600;-66
2023/08/05 14:19:59;;;;;;;2.65;1.50;;;;;;;30.23;37.84;101064.75;6111558;29;20220;-66
2023/08/05 14:23:22;;;;;;;1.23;1.13;;;;;;;28.72;38.64;101056.91;6111268;28;20228;-66
2023/08/05 14:26:43;;;;;;;1.20;1.10;;;;;;;28.56;39.13;101061.31;6109930;29;20227;-65
2023/08/05 14:30:04;;;;;;;5.50;2.28;;;;;;;27.89;41.06;101051.06;6101024;29;20233;-67
2023/08/05 14:33:25;;;;;;;2.40;2.20;;;;;;;28.35;40.98;101051.75;6106104;29;20263;-67
2023/08/05 14:36:46;;;;;;;1.30;1.17;;;;;;;28.05;40.28;101044.78;6114395;29;20231;-66
2023/08/05 14:40:10;;;;;;;2.50;2.03;;;;;;;27.24;41.76;101036.56;6113481;28;20235;-66
2023/08/05 14:43:33;;;;;;;3.92;2.17;;;;;;;26.33;43.87;101036.13;6117048;29;20231;-66
2023/08/05 14:46:54;;;;;;;2.40;2.13;;;;;;;27.61;43.54;101024.13;6119123;29;20665;-66
2023/08/05 14:50:15;;;;;;;2.20;1.60;;;;;;;28.14;41.95;101024.72;6082445;29;20256;-64
2023/08/05 14:53:36;;;;;;;3.08;1.83;;;;;;;28.45;42.14;101017.81;6115336;29;20548;-67
2023/08/05 14:56:58;;;;;;;2.15;1.30;;;;;;;27.90;41.79;101006.47;6095538;29;20233;-66
2023/08/05 15:00:19;;;;;;;2.95;2.10;;;;;;;28.54;42.51;101004.38;6110902;29;20494;-66
2023/08/05 15:03:40;;;;;;;2.10;1.90;;;;;;;28.12;41.37;101004.69;6097478;29;20610;-66
2023/08/05 15:07:01;;;;;;;2.15;1.63;;;;;;;28.47;42.33;100997.03;6111337;28;20972;-66
2023/08/05 15:10:25;;;;;;;1.90;1.40;;;;;;;27.38;41.69;100994.56;6094108;29;20236;-69
2023/08/05 15:13:48;;;;;;;1.60;1.50;;;;;;;26.27;43.11;100999.22;6079180;28;21061;-66
2023/08/05 15:17:08;;;;;;;1.85;1.70;;;;;;;26.23;44.24;100989.69;6093821;29;20235;-66
2023/08/05 15:20:50;;;;;;;1.70;1.60;;;;;;;27.77;43.06;100975.41;6059027;29;20289;-66
2023/08/05 15:24:36;;;;;;;3.22;2.53;;;;;;;28.79;42.18;100974.31;6062761;29;20583;-67
2023/08/05 15:28:05;;;;;;;2.20;1.90;;;;;;;29.25;41.43;100968.34;6073609;29;20243;-66
2023/08/05 15:31:39;;;;;;;1.40;1.30;;;;;;;28.86;41.60;100972.19;6052199;28;20239;-65
2023/08/05 15:35:00;;;;;;;2.35;1.48;;;;;;;29.10;41.50;100973.69;6091459;29;20244;-66
2023/08/05 15:38:21;;;;;;;3.17;2.45;;;;;;;29.10;40.98;100970.91;6110140;29;20232;-66
2023/08/05 15:41:42;;;;;;;4.30;3.20;;;;;;;28.32;40.88;100966.28;6086718;29;20232;-67